Cherry Hill, NJ (08034)

8:11 AM EDT on September 04, 2015 (GMT -0400)
West Windsor | | Change Station
CLOSE
Current Station
Personal Weather Station
Location: Cherry Hill, NJ
Elevation: 85 ft
Nearby Weather Stations

Elev 85 ft 39.92 °N, 75.01 °W | Updated 12 minutes ago

Clear
Clear
75.9 °F
Feels Like 76 °F
N
0.0
Wind Variable Wind from East

Today
High -- | Low -- °F
--% Chance of Precip.
Yesterday
High -- | Low -- °F
Precip. -- in
6:30 AM 7:27 PM
Waning Gibbous, 60% visible
Pressure 29.99 in
Visibility 3.0 miles
Clouds Clear
Heat Index 76 °F
Dew Point 71 °F
Humidity 85%
Rainfall 0.00 in
Snow Depth Not available.
UV 1 out of 12
Pollen 9.80 out of 12
Air Quality Not available.
Flu Activity Not available.
METAR KVAY 041154Z AUTO 00000KT 3SM BR CLR 23/21 A2999 RMK AO2 SLP154 T02280206 10228 20194 51023
Pressure 29.99 in
Visibility 3.0 miles
Clouds Clear
Heat Index 76 °F
Dew Point 71 °F
Humidity 85%
Rainfall 0.00 in
Snow Depth Not available.
UV 1 out of 12
Pollen 9.80 out of 12
Air Quality Not available.
Flu Activity Not available.
METAR KVAY 041154Z AUTO 00000KT 3SM BR CLR 23/21 A2999 RMK AO2 SLP154 T02280206 10228 20194 51023

10-Day Weather Forecast

×

Almanac

Astronomy

Sep. 04, 2015 Rise Set
Actual Time
Civil Twilight
Nautical Twilight
Astronomical Twilight
Moon
Length of Visible Light
Length of Day
Tomorrow will be .
, % of the Moon is Illuminated

Today's Extremes

State Highs State Lows

Community

WunderPhotos

Upload Photos

1,852,161 photos uploaded!

WunderBlogs® & News

Nearby

Air Quality

  Air Quality AQ Index Pollutant
Not available.

Snow Depth

Station Depth Elevation

Earthquake Activity

City Distance Mag. Time & Date
Minimum magnitude displayed is 2.5.

Coastal Water Temperatures

Place Temperature

Stations

Nearby Weather Stations

Station Location Temp. Windchill Dew Point Humidity Wind Precip. Elev Updated Type